Time;durP1;ratioP1;P1;durP2;ratioP2;P2;SDS_P1;SDS_P2;PMS_P1;PMS_P2;Temp;Humidity;BMP_temperature;BMP_pressure;BME280_temperature;BME280_humidity;BME280_pressure;Samples;Min_cycle;Max_cycle;Signal;HPM_P1;HPM_P2
2022/06/21 00:02:02;;;;;;;6.43;2.40;;;;;;;;;;10325739;28;20034;-59
2022/06/21 00:07:05;;;;;;;2.40;2.10;;;;;;;;;;10325879;28;20031;-59
2022/06/21 00:12:11;;;;;;;3.72;2.38;;;;;;;;;;10323884;28;20472;-59
2022/06/21 00:17:19;;;;;;;3.63;2.25;;;;;;;;;;10322761;28;20110;-59
2022/06/21 00:22:20;;;;;;;3.53;2.05;;;;;;;;;;10324057;28;20026;-59
2022/06/21 00:27:22;;;;;;;2.15;1.95;;;;;;;;;;10325979;28;20058;-59
2022/06/21 00:32:22;;;;;;;1.83;1.67;;;;;;;;;;10321596;28;20381;-60
2022/06/21 00:37:23;;;;;;;2.13;1.90;;;;;;;;;;10325407;28;20023;-59
2022/06/21 00:42:30;;;;;;;2.38;1.83;;;;;;;;;;10324403;28;20077;-59
2022/06/21 00:47:45;;;;;;;4.10;2.15;;;;;;;;;;10329276;28;20038;-60
2022/06/21 00:53:07;;;;;;;2.65;1.85;;;;;;;;;;10323478;28;20026;-60
2022/06/21 00:58:12;;;;;;;6.38;1.80;;;;;;;;;;10315718;28;20462;-61
2022/06/21 01:03:18;;;;;;;4.53;2.00;;;;;;;;;;10324058;28;20109;-60
2022/06/21 01:08:29;;;;;;;2.92;2.10;;;;;;;;;;10323721;28;20085;-61
2022/06/21 01:13:35;;;;;;;1.88;1.67;;;;;;;;;;10323899;28;20105;-61
2022/06/21 01:18:37;;;;;;;8.95;2.33;;;;;;;;;;10324875;28;20026;-60
2022/06/21 01:24:13;;;;;;;3.17;2.05;;;;;;;;;;10331062;28;20152;-60
2022/06/21 01:29:18;;;;;;;3.35;2.10;;;;;;;;;;10331598;28;20473;-61
2022/06/21 01:34:25;;;;;;;6.55;1.98;;;;;;;;;;10330643;28;20192;-61
2022/06/21 01:39:32;;;;;;;5.57;2.05;;;;;;;;;;10331315;28;20031;-61
2022/06/21 01:44:40;;;;;;;3.17;2.10;;;;;;;;;;10329880;28;20038;-60
2022/06/21 01:49:45;;;;;;;;;;;;;;;;;;10320783;28;20586;-61
2022/06/21 01:54:55;;;;;;;2.95;1.90;;;;;;;;;;10322812;28;19918;-59
2022/06/21 01:59:58;;;;;;;2.47;1.85;;;;;;;;;;10314672;28;20415;-60
2022/06/21 02:05:13;;;;;;;5.25;1.95;;;;;;;;;;10329762;28;20296;-60
2022/06/21 02:10:40;;;;;;;2.53;1.85;;;;;;;;;;10330814;28;20125;-60
2022/06/21 02:15:54;;;;;;;2.83;1.90;;;;;;;;;;10328959;28;20026;-60
2022/06/21 02:21:15;;;;;;;2.45;1.67;;;;;;;;;;10341461;28;20432;-60
2022/06/21 02:26:15;;;;;;;2.40;1.80;;;;;;;;;;10330804;28;20518;-60
2022/06/21 02:31:16;;;;;;;3.58;1.80;;;;;;;;;;10326547;28;20439;-60
2022/06/21 02:36:22;;;;;;;2.65;1.88;;;;;;;;;;10329213;28;20034;-60
2022/06/21 02:41:37;;;;;;;1.95;1.52;;;;;;;;;;10329015;28;20057;-59
2022/06/21 02:46:45;;;;;;;1.88;1.70;;;;;;;;;;10327861;28;20042;-60
2022/06/21 02:51:56;;;;;;;3.30;2.10;;;;;;;;;;10343447;28;20026;-60
2022/06/21 02:57:05;;;;;;;1.55;1.42;;;;;;;;;;10327575;28;20453;-60
2022/06/21 03:02:14;;;;;;;2.17;1.80;;;;;;;;;;10317928;28;20036;-60
2022/06/21 03:07:25;;;;;;;2.45;1.52;;;;;;;;;;10311397;28;20030;-60
2022/06/21 03:12:32;;;;;;;4.22;1.90;;;;;;;;;;10327124;28;20061;-63
2022/06/21 03:17:41;;;;;;;3.25;1.60;;;;;;;;;;10325533;28;20520;-57
2022/06/21 03:22:42;;;;;;;3.97;1.90;;;;;;;;;;10325523;28;20117;-58
2022/06/21 03:27:54;;;;;;;3.97;1.88;;;;;;;;;;10326204;28;20050;-57
2022/06/21 03:32:57;;;;;;;2.25;1.98;;;;;;;;;;10325918;28;20170;-57
2022/06/21 03:37:58;;;;;;;1.80;1.70;;;;;;;;;;10327436;28;20030;-58
2022/06/21 03:43:23;;;;;;;4.97;1.75;;;;;;;;;;10325234;28;20389;-58
2022/06/21 03:48:38;;;;;;;2.95;1.80;;;;;;;;;;10325845;28;20035;-58
2022/06/21 03:53:50;;;;;;;2.85;2.10;;;;;;;;;;10325684;28;20038;-58
2022/06/21 03:59:28;;;;;;;4.03;1.83;;;;;;;;;;10315770;28;20058;-58
2022/06/21 04:05:04;;;;;;;2.95;1.70;;;;;;;;;;10320932;28;20067;-58
2022/06/21 04:10:37;;;;;;;2.53;1.90;;;;;;;;;;10317784;28;20042;-56
2022/06/21 04:16:02;;;;;;;2.22;1.60;;;;;;;;;;10326071;28;20108;-57
2022/06/21 04:21:06;;;;;;;1.98;1.80;;;;;;;;;;10326290;28;20037;-58
2022/06/21 04:26:39;;;;;;;1.83;1.73;;;;;;;;;;10323842;28;20297;-58
2022/06/21 04:32:06;;;;;;;4.28;1.50;;;;;;;;;;10320972;28;20503;-58
2022/06/21 04:37:33;;;;;;;2.67;1.75;;;;;;;;;;10325324;28;20035;-60
2022/06/21 04:42:42;;;;;;;1.60;1.40;;;;;;;;;;10324826;28;20289;-58
2022/06/21 04:48:10;;;;;;;1.70;1.48;;;;;;;;;;10319968;28;20084;-57
2022/06/21 04:53:38;;;;;;;2.05;1.70;;;;;;;;;;10313897;28;20390;-58
2022/06/21 04:58:38;;;;;;;2.00;1.70;;;;;;;;;;10330930;28;20089;-57
2022/06/21 05:03:42;;;;;;;2.65;1.38;;;;;;;;;;10328590;28;20046;-57
2022/06/21 05:08:43;;;;;;;3.05;1.73;;;;;;;;;;10332795;28;20042;-57
2022/06/21 05:13:48;;;;;;;2.80;1.60;;;;;;;;;;10328781;28;20034;-57
2022/06/21 05:19:12;;;;;;;1.58;1.35;;;;;;;;;;10331121;28;20037;-56
2022/06/21 05:24:13;;;;;;;1.45;1.35;;;;;;;;;;10330541;23;20078;-60
2022/06/21 05:29:44;;;;;;;1.40;1.30;;;;;;;;;;10329200;28;20045;-60
2022/06/21 05:34:52;;;;;;;6.60;3.70;;;;;;;;;;10312762;28;20027;-58
2022/06/21 05:39:55;;;;;;;12.38;6.10;;;;;;;;;;10316767;28;20452;-58
2022/06/21 05:45:20;;;;;;;10.40;5.78;;;;;;;;;;10336083;28;20034;-59
2022/06/21 05:50:35;;;;;;;13.43;5.88;;;;;;;;;;10325859;28;20242;-59
2022/06/21 05:55:41;;;;;;;31.90;6.32;;;;;;;;;;10318228;28;20034;-63
2022/06/21 06:01:09;;;;;;;16.05;5.30;;;;;;;;;;10319762;28;20105;-64
2022/06/21 06:06:13;;;;;;;15.40;5.93;;;;;;;;;;10327566;28;20397;-62
2022/06/21 06:11:23;;;;;;;15.85;5.32;;;;;;;;;;10318290;28;20066;-64
2022/06/21 06:16:24;;;;;;;11.35;5.45;;;;;;;;;;10319993;28;20034;-62
2022/06/21 06:21:29;;;;;;;8.65;4.88;;;;;;;;;;10317680;28;20027;-63
2022/06/21 06:26:39;;;;;;;8.75;4.00;;;;;;;;;;10320782;28;20043;-65
2022/06/21 06:31:58;;;;;;;7.10;4.20;;;;;;;;;;10320574;28;20031;-62
2022/06/21 06:37:11;;;;;;;11.18;4.68;;;;;;;;;;10328206;28;20170;-65
2022/06/21 06:42:18;;;;;;;9.13;4.38;;;;;;;;;;10328782;28;20057;-65
2022/06/21 06:47:36;;;;;;;9.65;4.15;;;;;;;;;;10327066;28;20038;-65
2022/06/21 06:52:46;;;;;;;9.20;4.40;;;;;;;;;;10327404;28;20066;-63
2022/06/21 06:58:05;;;;;;;10.10;3.90;;;;;;;;;;10326117;28;20153;-65
2022/06/21 07:03:10;;;;;;;7.95;4.15;;;;;;;;;;10328073;28;20018;-63
2022/06/21 07:08:19;;;;;;;5.15;3.60;;;;;;;;;;10326821;28;20041;-63
2022/06/21 07:13:20;;;;;;;5.63;3.92;;;;;;;;;;10313814;28;20292;-63
2022/06/21 07:18:29;;;;;;;9.82;3.70;;;;;;;;;;10325341;28;20269;-63
2022/06/21 07:23:30;;;;;;;7.82;3.60;;;;;;;;;;10326162;28;20100;-65
2022/06/21 07:28:57;;;;;;;9.77;4.07;;;;;;;;;;10327721;28;20022;-64
2022/06/21 07:34:06;;;;;;;9.55;3.92;;;;;;;;;;10325130;28;20397;-63
2022/06/21 07:39:33;;;;;;;11.27;3.88;;;;;;;;;;10325876;28;20023;-65
2022/06/21 07:44:43;;;;;;;8.73;3.92;;;;;;;;;;10298614;28;20022;-62
2022/06/21 07:49:51;;;;;;;8.15;4.28;;;;;;;;;;10319271;28;20034;-62
2022/06/21 07:55:03;;;;;;;6.10;4.03;;;;;;;;;;10302221;28;20037;-63
2022/06/21 08:00:11;;;;;;;11.32;3.83;;;;;;;;;;10313694;28;20148;-62
2022/06/21 08:10:48;;;;;;;6.70;3.70;;;;;;;;;;10297516;28;20489;-65
2022/06/21 08:15:59;;;;;;;7.63;3.92;;;;;;;;;;10317022;28;20033;-63
2022/06/21 08:21:12;;;;;;;6.78;3.70;;;;;;;;;;10315145;28;20129;-63
2022/06/21 08:26:21;;;;;;;10.93;4.35;;;;;;;;;;10301407;28;20046;-64
2022/06/21 08:31:36;;;;;;;6.97;4.13;;;;;;;;;;10303287;28;20441;-61
2022/06/21 08:36:55;;;;;;;6.38;4.10;;;;;;;;;;10308576;28;20025;-63
2022/06/21 08:42:01;;;;;;;16.88;4.47;;;;;;;;;;10308215;28;20034;-65
2022/06/21 08:47:47;;;;;;;7.25;4.20;;;;;;;;;;10306599;28;20343;-59
2022/06/21 08:53:26;;;;;;;8.98;4.40;;;;;;;;;;10307078;28;20038;-64
2022/06/21 08:58:35;;;;;;;13.55;4.57;;;;;;;;;;10223258;28;20058;-64
2022/06/21 09:04:06;;;;;;;8.60;4.30;;;;;;;;;;10230660;29;20062;-64
2022/06/21 09:09:39;;;;;;;8.10;4.43;;;;;;;;;;10221191;29;20027;-65
2022/06/21 09:14:58;;;;;;;9.45;4.40;;;;;;;;;;10215328;29;20185;-64
2022/06/21 09:20:19;;;;;;;9.35;4.43;;;;;;;;;;10229044;29;20058;-60
2022/06/21 09:25:32;;;;;;;9.18;4.50;;;;;;;;;;10216911;29;20043;-60
2022/06/21 09:30:46;;;;;;;9.43;4.38;;;;;;;;;;10267270;28;20124;-63
2022/06/21 09:36:15;;;;;;;9.18;4.65;;;;;;;;;;10306850;28;20041;-63
2022/06/21 09:41:50;;;;;;;13.45;4.43;;;;;;;;;;10311032;28;20470;-62
2022/06/21 09:47:17;;;;;;;7.63;4.38;;;;;;;;;;10278663;28;20441;-62
2022/06/21 09:52:48;;;;;;;9.07;4.45;;;;;;;;;;10329422;28;20432;-63
2022/06/21 09:58:11;;;;;;;12.05;4.72;;;;;;;;;;10322425;28;20027;-60
2022/06/21 10:04:11;;;;;;;10.40;4.88;;;;;;;;;;10323493;28;20695;-58
2022/06/21 10:09:34;;;;;;;9.20;5.15;;;;;;;;;;10312467;28;20038;-63
2022/06/21 10:15:33;;;;;;;9.35;5.07;;;;;;;;;;10315984;28;20038;-64
2022/06/21 10:21:18;;;;;;;9.27;4.32;;;;;;;;;;10321027;28;20387;-64
2022/06/21 10:26:39;;;;;;;16.23;5.22;;;;;;;;;;10323951;28;20177;-65
2022/06/21 10:32:36;;;;;;;11.48;5.38;;;;;;;;;;10323390;28;20089;-65
2022/06/21 10:38:01;;;;;;;14.23;5.15;;;;;;;;;;10288276;28;20049;-65
2022/06/21 10:43:49;;;;;;;8.35;4.60;;;;;;;;;;10315951;28;20125;-65
2022/06/21 10:49:14;;;;;;;8.38;5.03;;;;;;;;;;10308739;28;20057;-65
2022/06/21 10:55:06;;;;;;;8.45;5.30;;;;;;;;;;10324844;28;20038;-65
2022/06/21 11:06:12;;;;;;;7.40;5.15;;;;;;;;;;10300245;28;20042;-65
2022/06/21 11:11:50;;;;;;;10.18;5.20;;;;;;;;;;10315644;28;20772;-65
2022/06/21 11:17:19;;;;;;;8.30;4.90;;;;;;;;;;10314481;28;20432;-64
2022/06/21 11:22:49;;;;;;;11.07;5.50;;;;;;;;;;10317720;28;20113;-63
2022/06/21 11:28:34;;;;;;;9.88;4.80;;;;;;;;;;10311538;28;20405;-65
2022/06/21 11:34:01;;;;;;;8.68;5.43;;;;;;;;;;10314926;28;20049;-63
2022/06/21 11:39:15;;;;;;;15.27;5.20;;;;;;;;;;10316672;28;20026;-65
2022/06/21 11:44:48;;;;;;;18.38;5.20;;;;;;;;;;10325502;28;20031;-65
2022/06/21 11:50:06;;;;;;;10.70;5.40;;;;;;;;;;10321559;28;20038;-64
2022/06/21 11:55:18;;;;;;;16.35;5.57;;;;;;;;;;10324834;28;20031;-64
2022/06/21 12:00:39;;;;;;;8.45;5.50;;;;;;;;;;10320870;28;20026;-65
2022/06/21 12:05:58;;;;;;;11.07;5.30;;;;;;;;;;10323267;28;20030;-64
2022/06/21 12:11:32;;;;;;;13.75;5.85;;;;;;;;;;10319796;28;20117;-65
2022/06/21 12:17:09;;;;;;;12.30;5.30;;;;;;;;;;10324507;28;20290;-62
2022/06/21 12:22:36;;;;;;;;;;;;;;;;;;10321388;28;20041;-63
2022/06/21 12:27:36;;;;;;;11.50;5.05;;;;;;;;;;10319642;28;19953;-64
2022/06/21 12:32:37;;;;;;;11.15;5.60;;;;;;;;;;10316001;28;20070;-64
2022/06/21 12:37:54;;;;;;;5.82;4.60;;;;;;;;;;10297066;28;20050;-65
2022/06/21 12:43:22;;;;;;;9.18;4.50;;;;;;;;;;10302679;28;20046;-64
2022/06/21 12:49:01;;;;;;;11.90;5.05;;;;;;;;;;10314200;28;20061;-63
2022/06/21 12:54:16;;;;;;;18.25;6.00;;;;;;;;;;10314073;28;20061;-63
2022/06/21 12:59:51;;;;;;;16.55;5.93;;;;;;;;;;10317924;28;20026;-62
2022/06/21 13:05:29;;;;;;;10.07;5.60;;;;;;;;;;10317611;28;20538;-61
2022/06/21 13:10:53;;;;;;;12.70;6.00;;;;;;;;;;10314464;28;20030;-64
2022/06/21 13:16:21;;;;;;;17.20;6.30;;;;;;;;;;10306540;28;20601;-62
2022/06/21 13:22:10;;;;;;;9.30;5.57;;;;;;;;;;10320960;28;20405;-63
2022/06/21 13:27:30;;;;;;;9.82;5.55;;;;;;;;;;10303336;28;20050;-64
2022/06/21 13:32:42;;;;;;;12.45;6.82;;;;;;;;;;10319568;28;20038;-64
2022/06/21 13:38:01;;;;;;;11.15;6.47;;;;;;;;;;10317050;28;20435;-63
2022/06/21 13:43:08;;;;;;;24.52;8.00;;;;;;;;;;10332622;28;20034;-64
2022/06/21 13:48:32;;;;;;;19.20;7.73;;;;;;;;;;10326133;28;20057;-64
2022/06/21 13:53:58;;;;;;;18.83;8.00;;;;;;;;;;10318945;28;20460;-63
2022/06/21 13:59:11;;;;;;;16.43;7.80;;;;;;;;;;10322888;28;20544;-62
2022/06/21 14:04:36;;;;;;;20.67;7.65;;;;;;;;;;10324974;28;20391;-56
2022/06/21 14:10:13;;;;;;;18.42;7.53;;;;;;;;;;10325842;28;20037;-57
2022/06/21 14:15:46;;;;;;;17.08;7.50;;;;;;;;;;10322850;28;20026;-61
2022/06/21 14:21:05;;;;;;;14.48;7.47;;;;;;;;;;10327118;28;20389;-63
2022/06/21 14:26:32;;;;;;;18.17;6.90;;;;;;;;;;10315475;28;20038;-63
2022/06/21 14:31:48;;;;;;;16.92;7.15;;;;;;;;;;10313797;28;20034;-63
2022/06/21 14:37:12;;;;;;;16.23;6.75;;;;;;;;;;10303588;28;20049;-63
2022/06/21 14:42:46;;;;;;;13.05;7.10;;;;;;;;;;10293726;28;20030;-63
2022/06/21 14:48:00;;;;;;;13.35;6.68;;;;;;;;;;10296119;28;20046;-61
2022/06/21 14:53:30;;;;;;;11.98;6.30;;;;;;;;;;10313332;28;20034;-62
2022/06/21 14:58:46;;;;;;;11.30;6.35;;;;;;;;;;10316971;28;20445;-63
2022/06/21 15:04:20;;;;;;;12.48;5.80;;;;;;;;;;10321263;28;20468;-61
2022/06/21 15:09:32;;;;;;;11.80;5.90;;;;;;;;;;10324015;28;20061;-64
2022/06/21 15:15:03;;;;;;;13.50;5.95;;;;;;;;;;10322424;28;20037;-62
2022/06/21 15:20:30;;;;;;;10.93;5.43;;;;;;;;;;10315174;28;20070;-64
2022/06/21 15:25:30;;;;;;;10.75;5.65;;;;;;;;;;10338689;28;20046;-64
2022/06/21 15:30:52;;;;;;;9.13;5.50;;;;;;;;;;10313938;28;20030;-60
2022/06/21 15:36:10;;;;;;;12.00;5.25;;;;;;;;;;10321809;28;20991;-63
2022/06/21 15:41:24;;;;;;;11.75;5.82;;;;;;;;;;10325135;28;20108;-62
2022/06/21 15:46:30;;;;;;;13.77;5.78;;;;;;;;;;10320461;28;20038;-63
2022/06/21 15:51:41;;;;;;;11.40;5.03;;;;;;;;;;10324474;28;20089;-60
2022/06/21 15:57:13;;;;;;;7.10;5.10;;;;;;;;;;10311000;28;20022;-62
2022/06/21 16:02:38;;;;;;;9.98;5.13;;;;;;;;;;10297081;28;20030;-61
2022/06/21 16:07:57;;;;;;;16.33;5.85;;;;;;;;;;10297838;28;20034;-63
2022/06/21 16:13:09;;;;;;;7.38;4.88;;;;;;;;;;10311409;28;20034;-63
2022/06/21 16:18:14;;;;;;;9.90;5.22;;;;;;;;;;10309643;28;21851;-63
2022/06/21 16:23:33;;;;;;;12.02;5.13;;;;;;;;;;10294167;28;20101;-63
2022/06/21 16:28:53;;;;;;;7.22;5.03;;;;;;;;;;10305570;28;20141;-63
2022/06/21 16:34:11;;;;;;;8.82;5.20;;;;;;;;;;10313547;28;20030;-60
2022/06/21 16:39:51;;;;;;;11.60;4.97;;;;;;;;;;10302179;28;20037;-61
2022/06/21 16:45:19;;;;;;;14.15;5.00;;;;;;;;;;10316531;28;20516;-62
2022/06/21 16:50:54;;;;;;;13.10;5.00;;;;;;;;;;10320300;28;20096;-62
2022/06/21 16:56:00;;;;;;;11.20;5.03;;;;;;;;;;10310220;28;20023;-61
2022/06/21 17:01:03;;;;;;;10.32;4.72;;;;;;;;;;10323890;28;20034;-59
2022/06/21 17:06:05;;;;;;;13.52;5.30;;;;;;;;;;10324298;28;20504;-59
2022/06/21 17:11:25;;;;;;;9.38;4.80;;;;;;;;;;10321532;28;20067;-62
2022/06/21 17:16:54;;;;;;;13.95;4.70;;;;;;;;;;10317234;28;20687;-54
2022/06/21 17:22:24;;;;;;;8.05;4.93;;;;;;;;;;10313746;28;20380;-59
2022/06/21 17:28:01;;;;;;;10.52;4.50;;;;;;;;;;10329818;28;20058;-62
2022/06/21 17:33:29;;;;;;;11.75;5.13;;;;;;;;;;10316413;28;20057;-61
2022/06/21 17:38:56;;;;;;;10.77;5.15;;;;;;;;;;10326141;28;20022;-61
2022/06/21 17:44:24;;;;;;;9.37;5.20;;;;;;;;;;10305653;28;20041;-62
2022/06/21 17:49:38;;;;;;;9.18;5.13;;;;;;;;;;10315775;28;20034;-60
2022/06/21 17:54:46;;;;;;;9.85;5.13;;;;;;;;;;10329378;28;20205;-60
2022/06/21 17:59:47;;;;;;;22.17;5.00;;;;;;;;;;10328436;28;20030;-60
2022/06/21 18:04:59;;;;;;;13.23;4.80;;;;;;;;;;10327659;28;20037;-62
2022/06/21 18:10:22;;;;;;;18.83;4.63;;;;;;;;;;10329548;28;20026;-62
2022/06/21 18:15:38;;;;;;;13.43;4.80;;;;;;;;;;10326530;28;20065;-61
2022/06/21 18:21:04;;;;;;;10.75;4.35;;;;;;;;;;10314568;28;20125;-61
2022/06/21 18:26:33;;;;;;;17.10;4.80;;;;;;;;;;10328215;28;20081;-56
2022/06/21 18:32:23;;;;;;;10.23;4.03;;;;;;;;;;10328311;28;20117;-60
2022/06/21 18:38:00;;;;;;;12.68;4.43;;;;;;;;;;10306646;28;20174;-63
2022/06/21 18:43:29;;;;;;;;;;;;;;;;;;10313344;28;20065;-54
2022/06/21 18:48:59;;;;;;;8.65;4.13;;;;;;;;;;10323484;28;20305;-61
2022/06/21 18:54:09;;;;;;;11.10;4.07;;;;;;;;;;10326131;28;20037;-64
2022/06/21 18:59:15;;;;;;;7.63;3.50;;;;;;;;;;10306322;28;20121;-64
2022/06/21 19:10:31;;;;;;;10.55;3.88;;;;;;;;;;10312109;28;20194;-62
2022/06/21 19:15:53;;;;;;;13.00;4.20;;;;;;;;;;10315041;28;20113;-63
2022/06/21 19:21:08;;;;;;;12.80;4.40;;;;;;;;;;10321297;28;20046;-62
2022/06/21 19:26:23;;;;;;;17.60;4.22;;;;;;;;;;10320516;28;20045;-63
2022/06/21 19:31:42;;;;;;;11.18;4.65;;;;;;;;;;10318364;28;20037;-62
2022/06/21 19:37:07;;;;;;;11.80;4.15;;;;;;;;;;10316548;28;20026;-61
2022/06/21 19:42:37;;;;;;;11.85;4.45;;;;;;;;;;10318151;28;20117;-64
2022/06/21 19:47:54;;;;;;;10.30;3.67;;;;;;;;;;10334805;28;20037;-64
2022/06/21 19:52:58;;;;;;;6.22;3.75;;;;;;;;;;10319907;28;20383;-60
2022/06/21 19:58:24;;;;;;;15.85;4.47;;;;;;;;;;10315701;28;20061;-59
2022/06/21 20:03:43;;;;;;;5.35;3.80;;;;;;;;;;10313626;28;20045;-59
2022/06/21 20:08:51;;;;;;;11.13;4.00;;;;;;;;;;10300323;28;20130;-58
2022/06/21 20:14:27;;;;;;;20.25;4.00;;;;;;;;;;10303453;28;20034;-59
2022/06/21 20:19:44;;;;;;;10.15;3.55;;;;;;;;;;10314326;28;20363;-58
2022/06/21 20:25:23;;;;;;;7.15;3.33;;;;;;;;;;10325518;28;20045;-57
2022/06/21 20:30:32;;;;;;;4.28;2.97;;;;;;;;;;10323775;28;20433;-58
2022/06/21 20:35:41;;;;;;;9.82;3.80;;;;;;;;;;10321453;28;20458;-58
2022/06/21 20:40:50;;;;;;;4.18;3.13;;;;;;;;;;10323506;28;20485;-58
2022/06/21 20:46:06;;;;;;;4.35;2.90;;;;;;;;;;10325646;28;20481;-58
2022/06/21 20:51:16;;;;;;;8.73;2.72;;;;;;;;;;10311828;28;20030;-57
2022/06/21 20:56:22;;;;;;;3.53;2.90;;;;;;;;;;10323433;28;20042;-58
2022/06/21 21:01:27;;;;;;;4.05;2.80;;;;;;;;;;10317952;28;20034;-58
2022/06/21 21:06:35;;;;;;;15.95;2.75;;;;;;;;;;10317906;28;20533;-58
2022/06/21 21:11:39;;;;;;;;;;;;;;;;;;10314742;28;20035;-58
2022/06/21 21:16:50;;;;;;;5.53;2.92;;;;;;;;;;10316954;28;19918;-58
2022/06/21 21:22:13;;;;;;;12.77;3.08;;;;;;;;;;10318835;28;20042;-58
2022/06/21 21:27:18;;;;;;;14.10;2.80;;;;;;;;;;10313355;28;20341;-58
2022/06/21 21:32:47;;;;;;;9.73;3.38;;;;;;;;;;10316376;28;20374;-59
2022/06/21 21:38:02;;;;;;;11.00;2.63;;;;;;;;;;10326798;28;20034;-59
2022/06/21 21:43:23;;;;;;;10.93;3.10;;;;;;;;;;10320336;28;20413;-59
2022/06/21 21:48:31;;;;;;;8.85;3.17;;;;;;;;;;10322727;28;20034;-59
2022/06/21 21:53:36;;;;;;;5.60;2.70;;;;;;;;;;10324773;28;20026;-59
2022/06/21 21:58:38;;;;;;;8.80;2.60;;;;;;;;;;10317144;28;20036;-60
2022/06/21 22:03:54;;;;;;;6.25;2.75;;;;;;;;;;10309473;28;20033;-59
2022/06/21 22:09:19;;;;;;;6.50;2.63;;;;;;;;;;10313681;28;20030;-57
2022/06/21 22:14:48;;;;;;;7.97;2.97;;;;;;;;;;10310506;28;20113;-58
2022/06/21 22:20:16;;;;;;;11.48;3.20;;;;;;;;;;10308547;28;20073;-58
2022/06/21 22:25:27;;;;;;;2.70;2.43;;;;;;;;;;10306503;28;20046;-58
2022/06/21 22:30:38;;;;;;;6.60;2.70;;;;;;;;;;10320684;28;20034;-57
2022/06/21 22:35:42;;;;;;;8.20;2.83;;;;;;;;;;10328954;28;20099;-59
2022/06/21 22:40:47;;;;;;;4.70;2.45;;;;;;;;;;10327782;28;20030;-59
2022/06/21 22:45:50;;;;;;;5.30;2.33;;;;;;;;;;10324416;28;20026;-59
2022/06/21 22:50:59;;;;;;;2.85;2.40;;;;;;;;;;10326269;28;20054;-59
2022/06/21 22:56:03;;;;;;;2.22;2.03;;;;;;;;;;10310194;28;20500;-59
2022/06/21 23:01:15;;;;;;;4.18;2.60;;;;;;;;;;10313478;28;20521;-59
2022/06/21 23:56:29;;;;;;;3.67;2.85;;;;;;;;;;10317162;28;20452;-58
